Terminal Aerodrome Forecast
Issued by NWS

Home | Current Version | Previous Version | Text Only | Print | Product List | Glossary On
Versions: 1 2 3 4 5 6 7 8 9 10 11 12 13 14 15 16 17 18 19 20 21 22 23 24 25 26 27 28 29 30 31 32 33 34 35 36 37 38 39 40 41 42 43 44
000
FTUS44 KLIX 251800 RRA
TAFMCB
TAF
KMCB 251800Z 2518/2618 13009G17KT P6SM -SHRA SCT035 BKN090
     FM252000 13010G18KT P6SM -TSRA BKN035CB OVC070
      TEMPO 2520/2523 VRB20G30KT 3SM TSRA BR BKN030CB
     FM260200 13006KT P6SM BKN090
     FM260900 VRB03KT P6SM OVC020
     FM261200 10005KT 3SM BR OVC003
     FM261400 11006KT P6SM SCT008 OVC025=

USA.gov is the U.S. government's official web portal to all federal, state and local government web resources and services.